PWSweather.com
Personal Weather Stations
Station Observations
KCOBLACK1
Chalet Park, Black Hawk, CO 80422

Chalet ParkBlack Hawk, CO 80422

Lat: 39.8294, Lon: -105.48

Elevation: 9370

Station Type: Vantage Pro2

http://www.oscaranddeb.com/weather

High Low Average
Temperature 34.8°F1.6°F 23.4°F-4.8°F 29.4°F-1.4°F
Dew Point 20.8°F-6.2°F -3.0°F-19.4°F 12.3°F-10.9°F
Winds 46.0 mph NW74.0 mph NW Calm Calm 9.8 mph 15.8 mph
Wind Gusts 63.0 mph101.4 mph 3.0 mph4.8 mph 23.0 mph37.0 mph
Humidity 76% 20% 48%
Pressure 30.30 in1026.10 in 30.04 in1017.30 in -
Precipitation 0.12 in3.00 in - -
Hour Temp Dew Point Humidity Winds Wind Gusts Pressure Precip Precip Rate Daily Precip Total
12:00 AM 23.8°F-4.6°C 11.2°F-11.6°C 58% 4.0 mph SW6.4 kmh SW 9.0 mph14.5 kmh 30.30 in1026.1 mb 0.00 in0.0 mm 0.00 in/hr0.0 mm/hr 0.01 in0.3 mm
12:05 AM 24.0°F-4.4°C 11.3°F-11.5°C 58% 5.0 mph WSW8.0 kmh WSW 10.0 mph16.1 kmh 30.30 in1026.1 mb 0.00 in0.0 mm 0.00 in/hr0.0 mm/hr 0.00 in0.0 mm
12:10 AM 24.1°F-4.4°C 11.0°F-11.7°C 57% 3.0 mph W4.8 kmh W 12.0 mph19.3 kmh 30.29 in1025.7 mb 0.00 in0.0 mm 0.00 in/hr0.0 mm/hr 0.00 in0.0 mm
12:15 AM 24.2°F-4.3°C 10.7°F-11.8°C 56% 8.0 mph WSW12.9 kmh WSW 10.0 mph16.1 kmh 30.29 in1025.7 mb 0.00 in0.0 mm 0.00 in/hr0.0 mm/hr 0.00 in0.0 mm
12:20 AM 24.2°F-4.3°C 11.5°F-11.4°C 58% 6.0 mph WSW9.7 kmh WSW 8.0 mph12.9 kmh 30.29 in1025.7 mb 0.00 in0.0 mm 0.00 in/hr0.0 mm/hr 0.00 in0.0 mm
12:26 AM 23.7°F-4.6°C 12.2°F-11.0°C 61% 4.0 mph WSW6.4 kmh WSW 9.0 mph14.5 kmh 30.28 in1025.4 mb 0.00 in0.0 mm 0.00 in/hr0.0 mm/hr 0.00 in0.0 mm
12:30 AM 23.4°F-4.8°C 11.9°F-11.2°C 61% 3.0 mph WSW4.8 kmh WSW 10.0 mph16.1 kmh 30.29 in1025.7 mb 0.00 in0.0 mm 0.00 in/hr0.0 mm/hr 0.00 in0.0 mm
12:35 AM 23.4°F-4.8°C 11.2°F-11.6°C 59% 4.0 mph SW6.4 kmh SW 7.0 mph11.3 kmh 30.29 in1025.7 mb 0.00 in0.0 mm 0.00 in/hr0.0 mm/hr 0.00 in0.0 mm
12:40 AM 23.6°F-4.7°C 11.0°F-11.7°C 58% 3.0 mph WSW4.8 kmh WSW 8.0 mph12.9 kmh 30.28 in1025.4 mb 0.00 in0.0 mm 0.00 in/hr0.0 mm/hr 0.00 in0.0 mm
12:45 AM 23.7°F-4.6°C 10.7°F-11.8°C 57% 5.0 mph SW8.0 kmh SW 7.0 mph11.3 kmh 30.28 in1025.4 mb 0.00 in0.0 mm 0.00 in/hr0.0 mm/hr 0.00 in0.0 mm
12:50 AM 23.9°F-4.5°C 10.5°F-11.9°C 56% 3.0 mph SW4.8 kmh SW 7.0 mph11.3 kmh 30.28 in1025.4 mb 0.00 in0.0 mm 0.00 in/hr0.0 mm/hr 0.00 in0.0 mm
12:55 AM 24.5°F-4.2°C 9.4°F-12.6°C 52% 5.0 mph SW8.0 kmh SW 9.0 mph14.5 kmh 30.27 in1025.1 mb 0.00 in0.0 mm 0.00 in/hr0.0 mm/hr 0.00 in0.0 mm
01:00 AM 24.7°F-4.1°C 9.1°F-12.7°C 51% 4.0 mph WSW6.4 kmh WSW 8.0 mph12.9 kmh 30.27 in1025.1 mb 0.00 in0.0 mm 0.00 in/hr0.0 mm/hr 0.00 in0.0 mm
01:05 AM 24.4°F-4.2°C 9.3°F-12.6°C 52% 4.0 mph W6.4 kmh W 7.0 mph11.3 kmh 30.27 in1025.1 mb 0.00 in0.0 mm 0.00 in/hr0.0 mm/hr 0.00 in0.0 mm
01:10 AM 24.4°F-4.2°C 8.8°F-12.9°C 51% 2.0 mph W3.2 kmh W 7.0 mph11.3 kmh 30.26 in1024.7 mb 0.00 in0.0 mm 0.00 in/hr0.0 mm/hr 0.00 in0.0 mm
01:15 AM 24.2°F-4.3°C 8.7°F-12.9°C 51% 1.0 mph W1.6 kmh W 7.0 mph11.3 kmh 30.26 in1024.7 mb 0.00 in0.0 mm 0.00 in/hr0.0 mm/hr 0.00 in0.0 mm
01:20 AM 24.3°F-4.3°C 8.8°F-12.9°C 51% 3.0 mph WSW4.8 kmh WSW 9.0 mph14.5 kmh 30.26 in1024.7 mb 0.00 in0.0 mm 0.00 in/hr0.0 mm/hr 0.00 in0.0 mm
01:25 AM 23.9°F-4.5°C 8.4°F-13.1°C 51% 1.0 mph WSW1.6 kmh WSW 7.0 mph11.3 kmh 30.26 in1024.7 mb 0.00 in0.0 mm 0.00 in/hr0.0 mm/hr 0.00 in0.0 mm
01:30 AM 23.7°F-4.6°C 8.6°F-13.0°C 52% 3.0 mph SW4.8 kmh SW 8.0 mph12.9 kmh 30.26 in1024.7 mb 0.00 in0.0 mm 0.00 in/hr0.0 mm/hr 0.00 in0.0 mm
01:35 AM 24.0°F-4.4°C 8.0°F-13.3°C 50% 5.0 mph SW8.0 kmh SW 7.0 mph11.3 kmh 30.25 in1024.4 mb 0.00 in0.0 mm 0.00 in/hr0.0 mm/hr 0.00 in0.0 mm
01:40 AM 24.3°F-4.3°C 8.3°F-13.2°C 50% 4.0 mph SW6.4 kmh SW 8.0 mph12.9 kmh 30.25 in1024.4 mb 0.00 in0.0 mm 0.00 in/hr0.0 mm/hr 0.00 in0.0 mm
01:45 AM 24.5°F-4.2°C 8.1°F-13.3°C 49% 5.0 mph WSW8.0 kmh WSW 7.0 mph11.3 kmh 30.25 in1024.4 mb 0.00 in0.0 mm 0.00 in/hr0.0 mm/hr 0.00 in0.0 mm
01:50 AM 24.6°F-4.1°C 8.6°F-13.0°C 50% 4.0 mph WSW6.4 kmh WSW 6.0 mph9.7 kmh 30.24 in1024.0 mb 0.00 in0.0 mm 0.00 in/hr0.0 mm/hr 0.00 in0.0 mm
01:55 AM 24.5°F-4.2°C 8.1°F-13.3°C 49% 4.0 mph SW6.4 kmh SW 7.0 mph11.3 kmh 30.24 in1024.0 mb 0.00 in0.0 mm 0.00 in/hr0.0 mm/hr 0.00 in0.0 mm
02:00 AM 24.5°F-4.2°C 8.5°F-13.1°C 50% 3.0 mph SW4.8 kmh SW 7.0 mph11.3 kmh 30.24 in1024.0 mb 0.00 in0.0 mm 0.00 in/hr0.0 mm/hr 0.00 in0.0 mm
02:05 AM 24.4°F-4.2°C 8.4°F-13.1°C 50% 2.0 mph W3.2 kmh W 8.0 mph12.9 kmh 30.24 in1024.0 mb 0.00 in0.0 mm 0.00 in/hr0.0 mm/hr 0.00 in0.0 mm
02:10 AM 24.2°F-4.3°C 7.8°F-13.4°C 49% 1.0 mph SW1.6 kmh SW 6.0 mph9.7 kmh 30.23 in1023.7 mb 0.00 in0.0 mm 0.00 in/hr0.0 mm/hr 0.00 in0.0 mm
02:15 AM 24.0°F-4.4°C 7.6°F-13.6°C 49% 3.0 mph SW4.8 kmh SW 5.0 mph8.0 kmh 30.23 in1023.7 mb 0.00 in0.0 mm 0.00 in/hr0.0 mm/hr 0.00 in0.0 mm
02:20 AM 24.2°F-4.3°C 7.3°F-13.7°C 48% 1.0 mph SW1.6 kmh SW 5.0 mph8.0 kmh 30.23 in1023.7 mb 0.00 in0.0 mm 0.00 in/hr0.0 mm/hr 0.00 in0.0 mm
02:25 AM 25.1°F-3.8°C 7.2°F-13.8°C 46% 5.0 mph WSW8.0 kmh WSW 8.0 mph12.9 kmh 30.22 in1023.4 mb 0.00 in0.0 mm 0.00 in/hr0.0 mm/hr 0.00 in0.0 mm
02:30 AM 25.7°F-3.5°C 6.3°F-14.3°C 43% 2.0 mph WSW3.2 kmh WSW 7.0 mph11.3 kmh 30.23 in1023.7 mb 0.00 in0.0 mm 0.00 in/hr0.0 mm/hr 0.00 in0.0 mm
02:35 AM 25.9°F-3.4°C 5.4°F-14.8°C 41% 3.0 mph WSW4.8 kmh WSW 6.0 mph9.7 kmh 30.23 in1023.7 mb 0.00 in0.0 mm 0.00 in/hr0.0 mm/hr 0.00 in0.0 mm
02:40 AM 26.4°F-3.1°C 4.8°F-15.1°C 39% 3.0 mph SW4.8 kmh SW 4.0 mph6.4 kmh 30.23 in1023.7 mb 0.00 in0.0 mm 0.00 in/hr0.0 mm/hr 0.00 in0.0 mm
02:45 AM 26.9°F-2.8°C 4.1°F-15.5°C 37% 2.0 mph SW3.2 kmh SW 4.0 mph6.4 kmh 30.24 in1024.0 mb 0.00 in0.0 mm 0.00 in/hr0.0 mm/hr 0.00 in0.0 mm
02:50 AM 27.2°F-2.7°C 3.8°F-15.7°C 36% 2.0 mph SW3.2 kmh SW 4.0 mph6.4 kmh 30.24 in1024.0 mb 0.00 in0.0 mm 0.00 in/hr0.0 mm/hr 0.00 in0.0 mm
02:55 AM 28.0°F-2.2°C 3.2°F-16.0°C 34% 1.0 mph SW1.6 kmh SW 5.0 mph8.0 kmh 30.24 in1024.0 mb 0.00 in0.0 mm 0.00 in/hr0.0 mm/hr 0.00 in0.0 mm
03:00 AM 29.2°F-1.6°C 0.1°F-17.7°C 28% 4.0 mph WNW6.4 kmh WNW 10.0 mph16.1 kmh 30.25 in1024.4 mb 0.00 in0.0 mm 0.00 in/hr0.0 mm/hr 0.00 in0.0 mm
03:05 AM 29.5°F-1.4°C 0.4°F-17.6°C 28% 3.0 mph WNW4.8 kmh WNW 8.0 mph12.9 kmh 30.24 in1024.0 mb 0.00 in0.0 mm 0.00 in/hr0.0 mm/hr 0.00 in0.0 mm
03:10 AM 28.8°F-1.8°C 1.3°F-17.1°C 30% 5.0 mph SW8.0 kmh SW 8.0 mph12.9 kmh 30.24 in1024.0 mb 0.00 in0.0 mm 0.00 in/hr0.0 mm/hr 0.00 in0.0 mm
03:15 AM 27.8°F-2.3°C 3.1°F-16.1°C 34% 2.0 mph SW3.2 kmh SW 8.0 mph12.9 kmh 30.24 in1024.0 mb 0.00 in0.0 mm 0.00 in/hr0.0 mm/hr 0.00 in0.0 mm
03:20 AM 27.2°F-2.7°C 3.8°F-15.7°C 36% 5.0 mph WSW8.0 kmh WSW 10.0 mph16.1 kmh 30.23 in1023.7 mb 0.00 in0.0 mm 0.00 in/hr0.0 mm/hr 0.00 in0.0 mm
03:25 AM 27.4°F-2.6°C 3.9°F-15.6°C 36% 3.0 mph SW4.8 kmh SW 9.0 mph14.5 kmh 30.23 in1023.7 mb 0.00 in0.0 mm 0.00 in/hr0.0 mm/hr 0.00 in0.0 mm
03:30 AM 27.1°F-2.7°C 3.7°F-15.7°C 36% 3.0 mph WSW4.8 kmh WSW 9.0 mph14.5 kmh 30.23 in1023.7 mb 0.00 in0.0 mm 0.00 in/hr0.0 mm/hr 0.00 in0.0 mm
03:35 AM 27.1°F-2.7°C 3.7°F-15.7°C 36% 2.0 mph WSW3.2 kmh WSW 10.0 mph16.1 kmh 30.24 in1024.0 mb 0.00 in0.0 mm 0.00 in/hr0.0 mm/hr 0.00 in0.0 mm
03:40 AM 27.1°F-2.7°C 3.1°F-16.1°C 35% 2.0 mph SW3.2 kmh SW 5.0 mph8.0 kmh 30.24 in1024.0 mb 0.00 in0.0 mm 0.00 in/hr0.0 mm/hr 0.00 in0.0 mm
03:45 AM 27.0°F-2.8°C 3.0°F-16.1°C 35% 4.0 mph SW6.4 kmh SW 5.0 mph8.0 kmh 30.24 in1024.0 mb 0.00 in0.0 mm 0.00 in/hr0.0 mm/hr 0.00 in0.0 mm
03:50 AM 27.2°F-2.7°C 1.9°F-16.7°C 33% 3.0 mph WSW4.8 kmh WSW 6.0 mph9.7 kmh 30.24 in1024.0 mb 0.00 in0.0 mm 0.00 in/hr0.0 mm/hr 0.00 in0.0 mm
03:55 AM 27.4°F-2.6°C 1.4°F-17.0°C 32% 3.0 mph SW4.8 kmh SW 5.0 mph8.0 kmh 30.23 in1023.7 mb 0.00 in0.0 mm 0.00 in/hr0.0 mm/hr 0.00 in0.0 mm
04:00 AM 27.5°F-2.5°C 0.8°F-17.3°C 31% 2.0 mph WSW3.2 kmh WSW 3.0 mph4.8 kmh 30.23 in1023.7 mb 0.00 in0.0 mm 0.00 in/hr0.0 mm/hr 0.00 in0.0 mm
04:05 AM 27.8°F-2.3°C 1.1°F-17.2°C 31% 1.0 mph WSW1.6 kmh WSW 4.0 mph6.4 kmh 30.23 in1023.7 mb 0.00 in0.0 mm 0.00 in/hr0.0 mm/hr 0.00 in0.0 mm
04:10 AM 28.1°F-2.2°C 1.4°F-17.0°C 31% 2.0 mph WSW3.2 kmh WSW 5.0 mph8.0 kmh 30.22 in1023.4 mb 0.00 in0.0 mm 0.00 in/hr0.0 mm/hr 0.00 in0.0 mm
04:15 AM 28.3°F-2.1°C 0.8°F-17.3°C 30% Calm Calm 7.0 mph11.3 kmh 30.23 in1023.7 mb 0.00 in0.0 mm 0.00 in/hr0.0 mm/hr 0.00 in0.0 mm
04:20 AM 28.4°F-2.0°C 0.9°F-17.3°C 30% 1.0 mph W1.6 kmh W 7.0 mph11.3 kmh 30.23 in1023.7 mb 0.00 in0.0 mm 0.00 in/hr0.0 mm/hr 0.00 in0.0 mm
04:25 AM 28.3°F-2.1°C 0.8°F-17.3°C 30% 7.0 mph SW11.3 kmh SW 8.0 mph12.9 kmh 30.23 in1023.7 mb 0.00 in0.0 mm 0.00 in/hr0.0 mm/hr 0.00 in0.0 mm
04:30 AM 28.6°F-1.9°C 0.4°F-17.6°C 29% 3.0 mph W4.8 kmh W 13.0 mph20.9 kmh 30.24 in1024.0 mb 0.00 in0.0 mm 0.00 in/hr0.0 mm/hr 0.00 in0.0 mm
04:35 AM 28.8°F-1.8°C 1.3°F-17.1°C 30% 5.0 mph SW8.0 kmh SW 11.0 mph17.7 kmh 30.24 in1024.0 mb 0.00 in0.0 mm 0.00 in/hr0.0 mm/hr 0.00 in0.0 mm
04:40 AM 28.0°F-2.2°C 3.2°F-16.0°C 34% 5.0 mph WSW8.0 kmh WSW 13.0 mph20.9 kmh 30.24 in1024.0 mb 0.00 in0.0 mm 0.00 in/hr0.0 mm/hr 0.00 in0.0 mm
04:45 AM 27.9°F-2.3°C 4.4°F-15.3°C 36% 1.0 mph WSW1.6 kmh WSW 13.0 mph20.9 kmh 30.23 in1023.7 mb 0.00 in0.0 mm 0.00 in/hr0.0 mm/hr 0.00 in0.0 mm
04:50 AM 27.6°F-2.4°C 5.3°F-14.8°C 38% 13.0 mph SW20.9 kmh SW 18.0 mph29.0 kmh 30.23 in1023.7 mb 0.00 in0.0 mm 0.00 in/hr0.0 mm/hr 0.00 in0.0 mm
04:55 AM 27.7°F-2.4°C 4.8°F-15.1°C 37% 7.0 mph W11.3 kmh W 16.0 mph25.7 kmh 30.23 in1023.7 mb 0.00 in0.0 mm 0.00 in/hr0.0 mm/hr 0.00 in0.0 mm
05:00 AM 27.6°F-2.4°C 4.1°F-15.5°C 36% 5.0 mph WSW8.0 kmh WSW 11.0 mph17.7 kmh 30.23 in1023.7 mb 0.00 in0.0 mm 0.00 in/hr0.0 mm/hr 0.00 in0.0 mm
05:05 AM 27.4°F-2.6°C 3.9°F-15.6°C 36% 8.0 mph WSW12.9 kmh WSW 10.0 mph16.1 kmh 30.23 in1023.7 mb 0.00 in0.0 mm 0.00 in/hr0.0 mm/hr 0.00 in0.0 mm
05:10 AM 27.5°F-2.5°C 4.6°F-15.2°C 37% 9.0 mph W14.5 kmh W 10.0 mph16.1 kmh 30.23 in1023.7 mb 0.00 in0.0 mm 0.00 in/hr0.0 mm/hr 0.00 in0.0 mm
05:15 AM 27.3°F-2.6°C 5.0°F-15.0°C 38% 4.0 mph WSW6.4 kmh WSW 11.0 mph17.7 kmh 30.23 in1023.7 mb 0.00 in0.0 mm 0.00 in/hr0.0 mm/hr 0.00 in0.0 mm
05:20 AM 27.3°F-2.6°C 5.0°F-15.0°C 38% 7.0 mph WSW11.3 kmh WSW 12.0 mph19.3 kmh 30.23 in1023.7 mb 0.00 in0.0 mm 0.00 in/hr0.0 mm/hr 0.00 in0.0 mm
05:25 AM 27.4°F-2.6°C 5.1°F-14.9°C 38% 6.0 mph W9.7 kmh W 14.0 mph22.5 kmh 30.22 in1023.4 mb 0.00 in0.0 mm 0.00 in/hr0.0 mm/hr 0.00 in0.0 mm
05:30 AM 26.9°F-2.8°C 5.2°F-14.9°C 39% 7.0 mph WSW11.3 kmh WSW 11.0 mph17.7 kmh 30.22 in1023.4 mb 0.00 in0.0 mm 0.00 in/hr0.0 mm/hr 0.00 in0.0 mm
05:35 AM 26.9°F-2.8°C 4.7°F-15.2°C 38% 7.0 mph WSW11.3 kmh WSW 11.0 mph17.7 kmh 30.22 in1023.4 mb 0.00 in0.0 mm 0.00 in/hr0.0 mm/hr 0.00 in0.0 mm
05:40 AM 26.8°F-2.9°C 4.0°F-15.6°C 37% 3.0 mph SW4.8 kmh SW 11.0 mph17.7 kmh 30.22 in1023.4 mb 0.00 in0.0 mm 0.00 in/hr0.0 mm/hr 0.00 in0.0 mm
05:45 AM 27.1°F-2.7°C 3.7°F-15.7°C 36% 3.0 mph WSW4.8 kmh WSW 5.0 mph8.0 kmh 30.21 in1023.0 mb 0.00 in0.0 mm 0.00 in/hr0.0 mm/hr 0.00 in0.0 mm
05:50 AM 27.1°F-2.7°C 3.1°F-16.1°C 35% 1.0 mph WSW1.6 kmh WSW 5.0 mph8.0 kmh 30.21 in1023.0 mb 0.00 in0.0 mm 0.00 in/hr0.0 mm/hr 0.00 in0.0 mm
05:55 AM 27.2°F-2.7°C 3.2°F-16.0°C 35% 2.0 mph W3.2 kmh W 3.0 mph4.8 kmh 30.22 in1023.4 mb 0.00 in0.0 mm 0.00 in/hr0.0 mm/hr 0.00 in0.0 mm
06:00 AM 27.0°F-2.8°C 3.6°F-15.8°C 36% 1.0 mph WSW1.6 kmh WSW 6.0 mph9.7 kmh 30.21 in1023.0 mb 0.00 in0.0 mm 0.00 in/hr0.0 mm/hr 0.00 in0.0 mm
06:05 AM 26.9°F-2.8°C 3.5°F-15.8°C 36% Calm Calm 3.0 mph4.8 kmh 30.21 in1023.0 mb 0.00 in0.0 mm 0.00 in/hr0.0 mm/hr 0.00 in0.0 mm
06:10 AM 27.0°F-2.8°C 3.6°F-15.8°C 36% 3.0 mph WSW4.8 kmh WSW 5.0 mph8.0 kmh 30.21 in1023.0 mb 0.00 in0.0 mm 0.00 in/hr0.0 mm/hr 0.00 in0.0 mm
06:15 AM 26.7°F-2.9°C 3.3°F-15.9°C 36% 4.0 mph NW6.4 kmh NW 11.0 mph17.7 kmh 30.20 in1022.7 mb 0.00 in0.0 mm 0.00 in/hr0.0 mm/hr 0.00 in0.0 mm
06:20 AM 26.4°F-3.1°C 4.2°F-15.4°C 38% 3.0 mph NW4.8 kmh NW 10.0 mph16.1 kmh 30.20 in1022.7 mb 0.00 in0.0 mm 0.00 in/hr0.0 mm/hr 0.00 in0.0 mm
06:25 AM 27.4°F-2.6°C 3.9°F-15.6°C 36% 3.0 mph WSW4.8 kmh WSW 15.0 mph24.1 kmh 30.19 in1022.4 mb 0.00 in0.0 mm 0.00 in/hr0.0 mm/hr 0.00 in0.0 mm
06:30 AM 27.5°F-2.5°C 3.4°F-15.9°C 35% 3.0 mph WSW4.8 kmh WSW 10.0 mph16.1 kmh 30.21 in1023.0 mb 0.00 in0.0 mm 0.00 in/hr0.0 mm/hr 0.00 in0.0 mm
06:35 AM 27.4°F-2.6°C 3.9°F-15.6°C 36% 5.0 mph NNW8.0 kmh NNW 5.0 mph8.0 kmh 30.20 in1022.7 mb 0.00 in0.0 mm 0.00 in/hr0.0 mm/hr 0.00 in0.0 mm
06:40 AM 27.5°F-2.5°C 4.0°F-15.6°C 36% 4.0 mph WSW6.4 kmh WSW 12.0 mph19.3 kmh 30.20 in1022.7 mb 0.00 in0.0 mm 0.00 in/hr0.0 mm/hr 0.00 in0.0 mm
06:45 AM 27.8°F-2.3°C 3.1°F-16.1°C 34% 11.0 mph NW17.7 kmh NW 23.0 mph37.0 kmh 30.19 in1022.4 mb 0.00 in0.0 mm 0.00 in/hr0.0 mm/hr 0.00 in0.0 mm
06:50 AM 28.2°F-2.1°C 2.8°F-16.2°C 33% 4.0 mph NW6.4 kmh NW 16.0 mph25.7 kmh 30.19 in1022.4 mb 0.00 in0.0 mm 0.00 in/hr0.0 mm/hr 0.00 in0.0 mm
06:55 AM 28.2°F-2.1°C 2.8°F-16.2°C 33% 2.0 mph W3.2 kmh W 15.0 mph24.1 kmh 30.19 in1022.4 mb 0.00 in0.0 mm 0.00 in/hr0.0 mm/hr 0.00 in0.0 mm
07:00 AM 28.7°F-1.8°C 1.2°F-17.1°C 30% 9.0 mph WNW14.5 kmh WNW 16.0 mph25.7 kmh 30.19 in1022.4 mb 0.00 in0.0 mm 0.00 in/hr0.0 mm/hr 0.00 in0.0 mm
07:05 AM 29.2°F-1.6°C 0.1°F-17.7°C 28% 13.0 mph WNW20.9 kmh WNW 15.0 mph24.1 kmh 30.20 in1022.7 mb 0.00 in0.0 mm 0.00 in/hr0.0 mm/hr 0.00 in0.0 mm
07:10 AM 29.9°F-1.2°C -5537.2°C 26% 3.0 mph W4.8 kmh W 21.0 mph33.8 kmh 30.20 in1022.7 mb 0.00 in0.0 mm 0.00 in/hr0.0 mm/hr 0.00 in0.0 mm
07:15 AM 30.8°F-0.7°C -5537.2°C 24% 15.0 mph W24.1 kmh W 25.0 mph40.2 kmh 30.20 in1022.7 mb 0.00 in0.0 mm 0.00 in/hr0.0 mm/hr 0.00 in0.0 mm
07:20 AM 31.3°F-0.4°C -5537.2°C 23% 11.0 mph WNW17.7 kmh WNW 21.0 mph33.8 kmh 30.21 in1023.0 mb 0.00 in0.0 mm 0.00 in/hr0.0 mm/hr 0.00 in0.0 mm
07:25 AM 31.4°F-0.3°C -5537.2°C 23% 13.0 mph WNW20.9 kmh WNW 27.0 mph43.5 kmh 30.20 in1022.7 mb 0.00 in0.0 mm 0.00 in/hr0.0 mm/hr 0.00 in0.0 mm
07:30 AM 31.5°F-0.3°C -2.0°F-18.9°C 23% 19.0 mph NW30.6 kmh NW 22.0 mph35.4 kmh 30.21 in1023.0 mb 0.00 in0.0 mm 0.00 in/hr0.0 mm/hr 0.00 in0.0 mm
07:35 AM 31.7°F-0.2°C -1.0°F-18.3°C 24% 18.0 mph NNW29.0 kmh NNW 26.0 mph41.8 kmh 30.21 in1023.0 mb 0.00 in0.0 mm 0.00 in/hr0.0 mm/hr 0.00 in0.0 mm
07:40 AM 31.9°F-0.1°C -5537.2°C 24% 17.0 mph NW27.4 kmh NW 32.0 mph51.5 kmh 30.21 in1023.0 mb 0.00 in0.0 mm 0.00 in/hr0.0 mm/hr 0.00 in0.0 mm
07:45 AM 31.9°F-0.1°C -5537.2°C 23% 16.0 mph NW25.7 kmh NW 32.0 mph51.5 kmh 30.21 in1023.0 mb 0.00 in0.0 mm 0.00 in/hr0.0 mm/hr 0.00 in0.0 mm
07:50 AM 31.7°F-0.2°C -5537.2°C 23% 11.0 mph N17.7 kmh N 27.0 mph43.5 kmh 30.21 in1023.0 mb 0.00 in0.0 mm 0.00 in/hr0.0 mm/hr 0.00 in0.0 mm
07:55 AM 31.7°F-0.2°C -1.0°F-18.3°C 24% 15.0 mph WNW24.1 kmh WNW 29.0 mph46.7 kmh 30.22 in1023.4 mb 0.00 in0.0 mm 0.00 in/hr0.0 mm/hr 0.00 in0.0 mm
08:00 AM 31.3°F-0.4°C -5537.2°C 25% 14.0 mph NW22.5 kmh NW 25.0 mph40.2 kmh 30.20 in1022.7 mb 0.00 in0.0 mm 0.00 in/hr0.0 mm/hr 0.00 in0.0 mm
08:05 AM 31.6°F-0.2°C -1.0°F-18.3°C 24% 16.0 mph NW25.7 kmh NW 32.0 mph51.5 kmh 30.20 in1022.7 mb 0.00 in0.0 mm 0.00 in/hr0.0 mm/hr 0.00 in0.0 mm
08:10 AM 31.8°F-0.1°C -5537.2°C 24% 16.0 mph NW25.7 kmh NW 26.0 mph41.8 kmh 30.21 in1023.0 mb 0.00 in0.0 mm 0.00 in/hr0.0 mm/hr 0.00 in0.0 mm
08:15 AM 32.3°F0.2°C -5537.2°C 22% 16.0 mph NW25.7 kmh NW 29.0 mph46.7 kmh 30.21 in1023.0 mb 0.00 in0.0 mm 0.00 in/hr0.0 mm/hr 0.00 in0.0 mm
08:20 AM 32.7°F0.4°C -5537.2°C 21% 25.0 mph NW40.2 kmh NW 39.0 mph62.8 kmh 30.21 in1023.0 mb 0.00 in0.0 mm 0.00 in/hr0.0 mm/hr 0.00 in0.0 mm
08:25 AM 33.1°F0.6°C -5537.2°C 20% 12.0 mph W19.3 kmh W 30.0 mph48.3 kmh 30.21 in1023.0 mb 0.00 in0.0 mm 0.00 in/hr0.0 mm/hr 0.00 in0.0 mm
08:30 AM 32.9°F0.5°C -5537.2°C 21% 14.0 mph W22.5 kmh W 27.0 mph43.5 kmh 30.21 in1023.0 mb 0.00 in0.0 mm 0.00 in/hr0.0 mm/hr 0.00 in0.0 mm
08:35 AM 32.9°F0.5°C -5537.2°C 21% 10.0 mph WNW16.1 kmh WNW 26.0 mph41.8 kmh 30.21 in1023.0 mb 0.00 in0.0 mm 0.00 in/hr0.0 mm/hr 0.00 in0.0 mm
08:40 AM 33.0°F0.6°C -5537.2°C 20% 14.0 mph WNW22.5 kmh WNW 24.0 mph38.6 kmh 30.20 in1022.7 mb 0.00 in0.0 mm 0.00 in/hr0.0 mm/hr 0.00 in0.0 mm
08:45 AM 33.2°F0.7°C -5537.2°C 20% 30.0 mph WNW48.3 kmh WNW 34.0 mph54.7 kmh 30.22 in1023.4 mb 0.00 in0.0 mm 0.00 in/hr0.0 mm/hr 0.00 in0.0 mm
08:50 AM 33.0°F0.6°C -5537.2°C 20% 21.0 mph W33.8 kmh W 30.0 mph48.3 kmh 30.20 in1022.7 mb 0.00 in0.0 mm 0.00 in/hr0.0 mm/hr 0.00 in0.0 mm
08:55 AM 32.9°F0.5°C -5537.2°C 21% 17.0 mph NW27.4 kmh NW 31.0 mph49.9 kmh 30.20 in1022.7 mb 0.00 in0.0 mm 0.00 in/hr0.0 mm/hr 0.00 in0.0 mm
09:00 AM 32.6°F0.3°C -3.0°F-19.4°C 21% 8.0 mph WNW12.9 kmh WNW 30.0 mph48.3 kmh 30.20 in1022.7 mb 0.00 in0.0 mm 0.00 in/hr0.0 mm/hr 0.00 in0.0 mm
09:05 AM 32.5°F0.3°C -5537.2°C 22% 29.0 mph N46.7 kmh N 32.0 mph51.5 kmh 30.20 in1022.7 mb 0.00 in0.0 mm 0.00 in/hr0.0 mm/hr 0.00 in0.0 mm
09:10 AM 32.5°F0.3°C -5537.2°C 22% 13.0 mph WNW20.9 kmh WNW 34.0 mph54.7 kmh 30.19 in1022.4 mb 0.00 in0.0 mm 0.00 in/hr0.0 mm/hr 0.00 in0.0 mm
09:15 AM 32.6°F0.3°C -3.0°F-19.4°C 21% 13.0 mph W20.9 kmh W 29.0 mph46.7 kmh 30.19 in1022.4 mb 0.00 in0.0 mm 0.00 in/hr0.0 mm/hr 0.00 in0.0 mm
09:20 AM 32.8°F0.4°C -5537.2°C 21% 8.0 mph WNW12.9 kmh WNW 24.0 mph38.6 kmh 30.19 in1022.4 mb 0.00 in0.0 mm 0.00 in/hr0.0 mm/hr 0.00 in0.0 mm
09:25 AM 32.9°F0.5°C -5537.2°C 21% 4.0 mph W6.4 kmh W 38.0 mph61.2 kmh 30.18 in1022.0 mb 0.00 in0.0 mm 0.00 in/hr0.0 mm/hr 0.00 in0.0 mm
09:30 AM 33.2°F0.7°C -5537.2°C 21% 11.0 mph WNW17.7 kmh WNW 31.0 mph49.9 kmh 30.20 in1022.7 mb 0.00 in0.0 mm 0.00 in/hr0.0 mm/hr 0.00 in0.0 mm
09:35 AM 33.2°F0.7°C -5537.2°C 21% 5.0 mph NW8.0 kmh NW 28.0 mph45.1 kmh 30.19 in1022.4 mb 0.00 in0.0 mm 0.00 in/hr0.0 mm/hr 0.00 in0.0 mm
09:40 AM 33.1°F0.6°C -5537.2°C 22% 5.0 mph NW8.0 kmh NW 36.0 mph57.9 kmh 30.19 in1022.4 mb 0.00 in0.0 mm 0.00 in/hr0.0 mm/hr 0.00 in0.0 mm
09:45 AM 33.0°F0.6°C -5537.2°C 22% 27.0 mph NW43.5 kmh NW 30.0 mph48.3 kmh 30.20 in1022.7 mb 0.00 in0.0 mm 0.00 in/hr0.0 mm/hr 0.00 in0.0 mm
09:50 AM 32.6°F0.3°C -5537.2°C 24% 11.0 mph W17.7 kmh W 31.0 mph49.9 kmh 30.19 in1022.4 mb 0.00 in0.0 mm 0.00 in/hr0.0 mm/hr 0.00 in0.0 mm
09:55 AM 33.0°F0.6°C -5537.2°C 22% 15.0 mph NW24.1 kmh NW 34.0 mph54.7 kmh 30.19 in1022.4 mb 0.00 in0.0 mm 0.00 in/hr0.0 mm/hr 0.00 in0.0 mm
10:00 AM 33.0°F0.6°C -5537.2°C 23% 11.0 mph W17.7 kmh W 30.0 mph48.3 kmh 30.18 in1022.0 mb 0.00 in0.0 mm 0.00 in/hr0.0 mm/hr 0.00 in0.0 mm
10:05 AM 33.1°F0.6°C -5537.2°C 22% 3.0 mph WSW4.8 kmh WSW 21.0 mph33.8 kmh 30.20 in1022.7 mb 0.00 in0.0 mm 0.00 in/hr0.0 mm/hr 0.00 in0.0 mm
10:10 AM 33.2°F0.7°C -5537.2°C 22% 9.0 mph W14.5 kmh W 19.0 mph30.6 kmh 30.18 in1022.0 mb 0.00 in0.0 mm 0.00 in/hr0.0 mm/hr 0.00 in0.0 mm
10:15 AM 33.4°F0.8°C -5537.2°C 21% 14.0 mph W22.5 kmh W 29.0 mph46.7 kmh 30.20 in1022.7 mb 0.00 in0.0 mm 0.00 in/hr0.0 mm/hr 0.00 in0.0 mm
10:20 AM 33.3°F0.7°C -5537.2°C 23% 14.0 mph W22.5 kmh W 28.0 mph45.1 kmh 30.18 in1022.0 mb 0.00 in0.0 mm 0.00 in/hr0.0 mm/hr 0.00 in0.0 mm
10:25 AM 33.3°F0.7°C -5537.2°C 22% 1.0 mph WSW1.6 kmh WSW 16.0 mph25.7 kmh 30.19 in1022.4 mb 0.00 in0.0 mm 0.00 in/hr0.0 mm/hr 0.00 in0.0 mm
10:30 AM 33.3°F0.7°C -5537.2°C 23% 11.0 mph SW17.7 kmh SW 13.0 mph20.9 kmh 30.20 in1022.7 mb 0.00 in0.0 mm 0.00 in/hr0.0 mm/hr 0.00 in0.0 mm
10:35 AM 33.6°F0.9°C -5537.2°C 23% 1.0 mph W1.6 kmh W 18.0 mph29.0 kmh 30.20 in1022.7 mb 0.00 in0.0 mm 0.00 in/hr0.0 mm/hr 0.00 in0.0 mm
10:40 AM 33.7°F0.9°C -5537.2°C 23% 7.0 mph WSW11.3 kmh WSW 17.0 mph27.4 kmh 30.19 in1022.4 mb 0.00 in0.0 mm 0.00 in/hr0.0 mm/hr 0.00 in0.0 mm
10:45 AM 33.8°F1.0°C -5537.2°C 23% 10.0 mph W16.1 kmh W 18.0 mph29.0 kmh 30.20 in1022.7 mb 0.00 in0.0 mm 0.00 in/hr0.0 mm/hr 0.00 in0.0 mm
10:50 AM 34.0°F1.1°C 0.1°F-17.7°C 23% 4.0 mph SW6.4 kmh SW 10.0 mph16.1 kmh 30.18 in1022.0 mb 0.00 in0.0 mm 0.00 in/hr0.0 mm/hr 0.00 in0.0 mm
10:55 AM 34.1°F1.2°C 0.2°F-17.7°C 23% 6.0 mph WSW9.7 kmh WSW 14.0 mph22.5 kmh 30.18 in1022.0 mb 0.00 in0.0 mm 0.00 in/hr0.0 mm/hr 0.00 in0.0 mm
11:00 AM 34.2°F1.2°C 1.2°F-17.1°C 24% 12.0 mph SW19.3 kmh SW 17.0 mph27.4 kmh 30.17 in1021.7 mb 0.00 in0.0 mm 0.00 in/hr0.0 mm/hr 0.00 in0.0 mm
11:05 AM 34.1°F1.2°C 1.1°F-17.2°C 24% 8.0 mph SW12.9 kmh SW 20.0 mph32.2 kmh 30.16 in1021.3 mb 0.00 in0.0 mm 0.00 in/hr0.0 mm/hr 0.00 in0.0 mm
11:10 AM 34.1°F1.2°C 1.1°F-17.2°C 24% 9.0 mph WSW14.5 kmh WSW 12.0 mph19.3 kmh 30.15 in1021.0 mb 0.00 in0.0 mm 0.00 in/hr0.0 mm/hr 0.00 in0.0 mm
11:15 AM 34.1°F1.2°C 2.0°F-16.7°C 25% 8.0 mph SW12.9 kmh SW 14.0 mph22.5 kmh 30.15 in1021.0 mb 0.00 in0.0 mm 0.00 in/hr0.0 mm/hr 0.00 in0.0 mm
11:20 AM 33.9°F1.1°C 2.6°F-16.3°C 26% 6.0 mph N9.7 kmh N 13.0 mph20.9 kmh 30.15 in1021.0 mb 0.00 in0.0 mm 0.00 in/hr0.0 mm/hr 0.00 in0.0 mm
11:25 AM 33.9°F1.1°C 3.4°F-15.9°C 27% 2.0 mph S3.2 kmh S 15.0 mph24.1 kmh 30.15 in1021.0 mb 0.00 in0.0 mm 0.00 in/hr0.0 mm/hr 0.00 in0.0 mm
11:30 AM 33.9°F1.1°C 5.7°F-14.6°C 30% 1.0 mph SE1.6 kmh SE 12.0 mph19.3 kmh 30.15 in1021.0 mb 0.00 in0.0 mm 0.00 in/hr0.0 mm/hr 0.00 in0.0 mm
11:35 AM 33.8°F1.0°C 4.9°F-15.1°C 29% 1.0 mph S1.6 kmh S 8.0 mph12.9 kmh 30.16 in1021.3 mb 0.00 in0.0 mm 0.00 in/hr0.0 mm/hr 0.00 in0.0 mm
11:40 AM 33.9°F1.1°C 5.7°F-14.6°C 30% 1.0 mph SSE1.6 kmh SSE 8.0 mph12.9 kmh 30.15 in1021.0 mb 0.00 in0.0 mm 0.00 in/hr0.0 mm/hr 0.00 in0.0 mm
11:45 AM 34.2°F1.2°C 6.0°F-14.4°C 30% 1.0 mph NNW1.6 kmh NNW 8.0 mph12.9 kmh 30.16 in1021.3 mb 0.00 in0.0 mm 0.00 in/hr0.0 mm/hr 0.00 in0.0 mm
11:50 AM 34.2°F1.2°C 6.0°F-14.4°C 30% Calm Calm 3.0 mph4.8 kmh 30.15 in1021.0 mb 0.00 in0.0 mm 0.00 in/hr0.0 mm/hr 0.00 in0.0 mm
11:55 AM 34.0°F1.1°C 6.5°F-14.2°C 31% 2.0 mph NE3.2 kmh NE 17.0 mph27.4 kmh 30.14 in1020.7 mb 0.00 in0.0 mm 0.00 in/hr0.0 mm/hr 0.00 in0.0 mm
12:00 PM 34.1°F1.2°C 8.0°F-13.3°C 33% 4.0 mph W6.4 kmh W 13.0 mph20.9 kmh 30.13 in1020.3 mb 0.00 in0.0 mm 0.00 in/hr0.0 mm/hr 0.00 in0.0 mm
12:05 PM 34.1°F1.2°C 9.9°F-12.3°C 36% 14.0 mph NW22.5 kmh NW 22.0 mph35.4 kmh 30.13 in1020.3 mb 0.00 in0.0 mm 0.00 in/hr0.0 mm/hr 0.00 in0.0 mm
12:10 PM 34.3°F1.3°C 10.7°F-11.8°C 37% Calm Calm 19.0 mph30.6 kmh 30.13 in1020.3 mb 0.00 in0.0 mm 0.00 in/hr0.0 mm/hr 0.00 in0.0 mm
12:15 PM 34.6°F1.4°C 11.6°F-11.3°C 38% 1.0 mph WNW1.6 kmh WNW 18.0 mph29.0 kmh 30.13 in1020.3 mb 0.00 in0.0 mm 0.00 in/hr0.0 mm/hr 0.00 in0.0 mm
12:20 PM 34.7°F1.5°C 10.5°F-11.9°C 36% 4.0 mph NW6.4 kmh NW 15.0 mph24.1 kmh 30.12 in1020.0 mb 0.00 in0.0 mm 0.00 in/hr0.0 mm/hr 0.00 in0.0 mm
12:25 PM 34.8°F1.6°C 11.8°F-11.2°C 38% 1.0 mph NW1.6 kmh NW 14.0 mph22.5 kmh 30.12 in1020.0 mb 0.00 in0.0 mm 0.00 in/hr0.0 mm/hr 0.00 in0.0 mm
12:30 PM 34.8°F1.6°C 12.3°F-10.9°C 39% 12.0 mph N19.3 kmh N 24.0 mph38.6 kmh 30.11 in1019.6 mb 0.00 in0.0 mm 0.00 in/hr0.0 mm/hr 0.00 in0.0 mm
12:35 PM 34.5°F1.4°C 11.5°F-11.4°C 38% 1.0 mph WNW1.6 kmh WNW 17.0 mph27.4 kmh 30.13 in1020.3 mb 0.00 in0.0 mm 0.00 in/hr0.0 mm/hr 0.00 in0.0 mm
12:40 PM 33.9°F1.1°C 12.1°F-11.1°C 40% 3.0 mph WNW4.8 kmh WNW 22.0 mph35.4 kmh 30.11 in1019.6 mb 0.00 in0.0 mm 0.00 in/hr0.0 mm/hr 0.00 in0.0 mm
12:45 PM 33.9°F1.1°C 12.7°F-10.7°C 41% 13.0 mph NW20.9 kmh NW 13.0 mph20.9 kmh 30.11 in1019.6 mb 0.00 in0.0 mm 0.00 in/hr0.0 mm/hr 0.00 in0.0 mm
12:50 PM 33.9°F1.1°C 12.7°F-10.7°C 41% 3.0 mph NW4.8 kmh NW 20.0 mph32.2 kmh 30.11 in1019.6 mb 0.00 in0.0 mm 0.00 in/hr0.0 mm/hr 0.00 in0.0 mm
12:55 PM 34.4°F1.3°C 13.1°F-10.5°C 41% 4.0 mph SW6.4 kmh SW 16.0 mph25.7 kmh 30.11 in1019.6 mb 0.00 in0.0 mm 0.00 in/hr0.0 mm/hr 0.00 in0.0 mm
01:00 PM 34.5°F1.4°C 13.2°F-10.4°C 41% 1.0 mph NW1.6 kmh NW 6.0 mph9.7 kmh 30.11 in1019.6 mb 0.00 in0.0 mm 0.00 in/hr0.0 mm/hr 0.00 in0.0 mm
01:05 PM 34.2°F1.2°C 13.5°F-10.3°C 42% 3.0 mph NW4.8 kmh NW 16.0 mph25.7 kmh 30.10 in1019.3 mb 0.00 in0.0 mm 0.00 in/hr0.0 mm/hr 0.00 in0.0 mm
01:10 PM 33.9°F1.1°C 13.2°F-10.4°C 42% 5.0 mph NW8.0 kmh NW 19.0 mph30.6 kmh 30.11 in1019.6 mb 0.00 in0.0 mm 0.00 in/hr0.0 mm/hr 0.00 in0.0 mm
01:15 PM 33.4°F0.8°C 12.8°F-10.7°C 42% 3.0 mph NW4.8 kmh NW 17.0 mph27.4 kmh 30.11 in1019.6 mb 0.00 in0.0 mm 0.00 in/hr0.0 mm/hr 0.00 in0.0 mm
01:20 PM 32.8°F0.4°C 11.7°F-11.3°C 41% 16.0 mph WSW25.7 kmh WSW 20.0 mph32.2 kmh 30.10 in1019.3 mb 0.00 in0.0 mm 0.00 in/hr0.0 mm/hr 0.00 in0.0 mm
01:25 PM 32.6°F0.3°C 12.0°F-11.1°C 42% 4.0 mph WNW6.4 kmh WNW 11.0 mph17.7 kmh 30.10 in1019.3 mb 0.00 in0.0 mm 0.00 in/hr0.0 mm/hr 0.00 in0.0 mm
01:30 PM 32.8°F0.4°C 12.7°F-10.7°C 43% 9.0 mph S14.5 kmh S 11.0 mph17.7 kmh 30.11 in1019.6 mb 0.00 in0.0 mm 0.00 in/hr0.0 mm/hr 0.00 in0.0 mm
01:35 PM 33.0°F0.6°C 14.0°F-10.0°C 45% 5.0 mph NNE8.0 kmh NNE 16.0 mph25.7 kmh 30.11 in1019.6 mb 0.00 in0.0 mm 0.00 in/hr0.0 mm/hr 0.00 in0.0 mm
01:40 PM 32.7°F0.4°C 14.7°F-9.6°C 47% 14.0 mph WNW22.5 kmh WNW 20.0 mph32.2 kmh 30.12 in1020.0 mb 0.00 in0.0 mm 0.00 in/hr0.0 mm/hr 0.00 in0.0 mm
01:45 PM 32.4°F0.2°C 14.9°F-9.5°C 48% 2.0 mph W3.2 kmh W 16.0 mph25.7 kmh 30.11 in1019.6 mb 0.00 in0.0 mm 0.00 in/hr0.0 mm/hr 0.00 in0.0 mm
01:50 PM 31.9°F-0.1°C 13.9°F-10.1°C 47% 3.0 mph W4.8 kmh W 24.0 mph38.6 kmh 30.11 in1019.6 mb 0.00 in0.0 mm 0.00 in/hr0.0 mm/hr 0.00 in0.0 mm
01:55 PM 31.7°F-0.2°C 14.7°F-9.6°C 49% 11.0 mph W17.7 kmh W 13.0 mph20.9 kmh 30.11 in1019.6 mb 0.00 in0.0 mm 0.00 in/hr0.0 mm/hr 0.00 in0.0 mm
02:00 PM 31.3°F-0.4°C 14.8°F-9.6°C 50% 7.0 mph W11.3 kmh W 24.0 mph38.6 kmh 30.10 in1019.3 mb 0.00 in0.0 mm 0.00 in/hr0.0 mm/hr 0.00 in0.0 mm
02:05 PM 31.1°F-0.5°C 14.6°F-9.7°C 50% 9.0 mph S14.5 kmh S 23.0 mph37.0 kmh 30.09 in1019.0 mb 0.00 in0.0 mm 0.00 in/hr0.0 mm/hr 0.00 in0.0 mm
02:10 PM 30.9°F-0.6°C 14.4°F-9.8°C 50% 7.0 mph WNW11.3 kmh WNW 20.0 mph32.2 kmh 30.09 in1019.0 mb 0.00 in0.0 mm 0.00 in/hr0.0 mm/hr 0.00 in0.0 mm
02:15 PM 30.7°F-0.7°C 14.7°F-9.6°C 51% 8.0 mph NNW12.9 kmh NNW 35.0 mph56.3 kmh 30.12 in1020.0 mb 0.00 in0.0 mm 0.00 in/hr0.0 mm/hr 0.00 in0.0 mm
02:20 PM 30.5°F-0.8°C 14.9°F-9.5°C 52% 7.0 mph W11.3 kmh W 36.0 mph57.9 kmh 30.11 in1019.6 mb 0.00 in0.0 mm 0.00 in/hr0.0 mm/hr 0.00 in0.0 mm
02:25 PM 30.2°F-1.0°C 15.1°F-9.4°C 53% 6.0 mph W9.7 kmh W 26.0 mph41.8 kmh 30.10 in1019.3 mb 0.00 in0.0 mm 0.00 in/hr0.0 mm/hr 0.00 in0.0 mm
02:30 PM 30.1°F-1.1°C 15.0°F-9.4°C 53% 11.0 mph W17.7 kmh W 50.0 mph80.5 kmh 30.10 in1019.3 mb 0.00 in0.0 mm 0.00 in/hr0.0 mm/hr 0.00 in0.0 mm
02:35 PM 30.3°F-0.9°C 15.6°F-9.1°C 54% 4.0 mph NW6.4 kmh NW 36.0 mph57.9 kmh 30.08 in1018.6 mb 0.00 in0.0 mm 0.00 in/hr0.0 mm/hr 0.00 in0.0 mm
02:40 PM 30.9°F-0.6°C 16.2°F-8.8°C 54% 7.0 mph SSW11.3 kmh SSW 20.0 mph32.2 kmh 30.09 in1019.0 mb 0.00 in0.0 mm 0.00 in/hr0.0 mm/hr 0.00 in0.0 mm
02:45 PM 31.7°F-0.2°C 16.5°F-8.6°C 53% 8.0 mph WSW12.9 kmh WSW 30.0 mph48.3 kmh 30.09 in1019.0 mb 0.00 in0.0 mm 0.00 in/hr0.0 mm/hr 0.00 in0.0 mm
02:50 PM 32.0°F0.0°C 16.8°F-8.4°C 53% 20.0 mph W32.2 kmh W 24.0 mph38.6 kmh 30.08 in1018.6 mb 0.00 in0.0 mm 0.00 in/hr0.0 mm/hr 0.00 in0.0 mm
02:55 PM 32.2°F0.1°C 17.4°F-8.1°C 54% 13.0 mph NW20.9 kmh NW 24.0 mph38.6 kmh 30.07 in1018.3 mb 0.00 in0.0 mm 0.00 in/hr0.0 mm/hr 0.00 in0.0 mm
03:00 PM 32.3°F0.2°C 17.5°F-8.1°C 54% 2.0 mph SW3.2 kmh SW 19.0 mph30.6 kmh 30.08 in1018.6 mb 0.00 in0.0 mm 0.00 in/hr0.0 mm/hr 0.00 in0.0 mm
03:05 PM 32.2°F0.1°C 17.4°F-8.1°C 54% 14.0 mph W22.5 kmh W 35.0 mph56.3 kmh 30.07 in1018.3 mb 0.00 in0.0 mm 0.00 in/hr0.0 mm/hr 0.00 in0.0 mm
03:10 PM 31.6°F-0.2°C 17.3°F-8.2°C 55% 18.0 mph WNW29.0 kmh WNW 46.0 mph74.0 kmh 30.07 in1018.3 mb 0.00 in0.0 mm 0.00 in/hr0.0 mm/hr 0.00 in0.0 mm
03:15 PM 30.9°F-0.6°C 17.0°F-8.3°C 56% 46.0 mph NW74.0 kmh NW 46.0 mph74.0 kmh 30.07 in1018.3 mb 0.01 in0.3 mm 0.12 in/hr3.0 mm/hr 0.01 in0.3 mm
03:20 PM 30.2°F-1.0°C 16.8°F-8.4°C 57% 31.0 mph NNW49.9 kmh NNW 41.0 mph66.0 kmh 30.06 in1017.9 mb 0.01 in0.3 mm 0.00 in/hr0.0 mm/hr 0.01 in0.3 mm
03:25 PM 29.7°F-1.3°C 17.1°F-8.3°C 59% 13.0 mph WNW20.9 kmh WNW 45.0 mph72.4 kmh 30.06 in1017.9 mb 0.01 in0.3 mm 0.00 in/hr0.0 mm/hr 0.01 in0.3 mm
03:30 PM 29.9°F-1.2°C 17.3°F-8.2°C 59% 19.0 mph WSW30.6 kmh WSW 49.0 mph78.9 kmh 30.07 in1018.3 mb 0.01 in0.3 mm 0.00 in/hr0.0 mm/hr 0.01 in0.3 mm
03:35 PM 29.8°F-1.2°C 17.6°F-8.0°C 60% 12.0 mph W19.3 kmh W 54.0 mph86.9 kmh 30.06 in1017.9 mb 0.01 in0.3 mm 0.00 in/hr0.0 mm/hr 0.01 in0.3 mm
03:40 PM 29.9°F-1.2°C 17.7°F-7.9°C 60% 27.0 mph WNW43.5 kmh WNW 43.0 mph69.2 kmh 30.05 in1017.6 mb 0.01 in0.3 mm 0.00 in/hr0.0 mm/hr 0.01 in0.3 mm
03:45 PM 30.1°F-1.1°C 17.9°F-7.8°C 60% 18.0 mph W29.0 kmh W 42.0 mph67.6 kmh 30.05 in1017.6 mb 0.01 in0.3 mm 0.00 in/hr0.0 mm/hr 0.01 in0.3 mm
03:50 PM 30.0°F-1.1°C 18.5°F-7.5°C 62% 18.0 mph NW29.0 kmh NW 52.0 mph83.7 kmh 30.06 in1017.9 mb 0.01 in0.3 mm 0.00 in/hr0.0 mm/hr 0.01 in0.3 mm
03:55 PM 30.0°F-1.1°C 18.2°F-7.7°C 61% 16.0 mph WNW25.7 kmh WNW 45.0 mph72.4 kmh 30.06 in1017.9 mb 0.01 in0.3 mm 0.00 in/hr0.0 mm/hr 0.01 in0.3 mm
04:00 PM 29.8°F-1.2°C 18.3°F-7.6°C 62% 11.0 mph WNW17.7 kmh WNW 48.0 mph77.2 kmh 30.06 in1017.9 mb 0.01 in0.3 mm 0.00 in/hr0.0 mm/hr 0.01 in0.3 mm
04:05 PM 29.6°F-1.3°C 18.2°F-7.7°C 62% 30.0 mph W48.3 kmh W 52.0 mph83.7 kmh 30.05 in1017.6 mb 0.01 in0.3 mm 0.00 in/hr0.0 mm/hr 0.01 in0.3 mm
04:10 PM 29.5°F-1.4°C 18.4°F-7.6°C 63% 19.0 mph W30.6 kmh W 44.0 mph70.8 kmh 30.05 in1017.6 mb 0.01 in0.3 mm 0.00 in/hr0.0 mm/hr 0.01 in0.3 mm
04:15 PM 29.4°F-1.4°C 18.3°F-7.6°C 63% 35.0 mph W56.3 kmh W 50.0 mph80.5 kmh 30.05 in1017.6 mb 0.00 in0.0 mm 0.00 in/hr0.0 mm/hr 0.01 in0.3 mm
04:20 PM 29.3°F-1.5°C 18.6°F-7.4°C 64% 26.0 mph WSW41.8 kmh WSW 46.0 mph74.0 kmh 30.05 in1017.6 mb 0.00 in0.0 mm 0.00 in/hr0.0 mm/hr 0.01 in0.3 mm
04:25 PM 29.2°F-1.6°C 18.9°F-7.3°C 65% 43.0 mph W69.2 kmh W 59.0 mph95.0 kmh 30.04 in1017.3 mb 0.00 in0.0 mm 0.00 in/hr0.0 mm/hr 0.01 in0.3 mm
04:30 PM 29.3°F-1.5°C 19.0°F-7.2°C 65% 21.0 mph WNW33.8 kmh WNW 59.0 mph95.0 kmh 30.04 in1017.3 mb 0.00 in0.0 mm 0.00 in/hr0.0 mm/hr 0.01 in0.3 mm
04:35 PM 29.4°F-1.4°C 19.1°F-7.2°C 65% 9.0 mph W14.5 kmh W 63.0 mph101.4 kmh 30.04 in1017.3 mb 0.00 in0.0 mm 0.00 in/hr0.0 mm/hr 0.01 in0.3 mm
04:40 PM 29.5°F-1.4°C 19.2°F-7.1°C 65% 41.0 mph NW66.0 kmh NW 51.0 mph82.1 kmh 30.04 in1017.3 mb 0.00 in0.0 mm 0.00 in/hr0.0 mm/hr 0.01 in0.3 mm
04:45 PM 29.5°F-1.4°C 18.8°F-7.3°C 64% 36.0 mph NW57.9 kmh NW 45.0 mph72.4 kmh 30.05 in1017.6 mb 0.00 in0.0 mm 0.00 in/hr0.0 mm/hr 0.01 in0.3 mm
04:50 PM 29.4°F-1.4°C 19.1°F-7.2°C 65% 36.0 mph SW57.9 kmh SW 57.0 mph91.7 kmh 30.04 in1017.3 mb 0.00 in0.0 mm 0.00 in/hr0.0 mm/hr 0.01 in0.3 mm
04:55 PM 29.6°F-1.3°C 19.3°F-7.1°C 65% 40.0 mph W64.4 kmh W 51.0 mph82.1 kmh 30.05 in1017.6 mb 0.00 in0.0 mm 0.00 in/hr0.0 mm/hr 0.01 in0.3 mm
05:00 PM 29.6°F-1.3°C 19.3°F-7.1°C 65% 31.0 mph NW49.9 kmh NW 52.0 mph83.7 kmh 30.05 in1017.6 mb 0.00 in0.0 mm 0.00 in/hr0.0 mm/hr 0.01 in0.3 mm
05:05 PM 29.6°F-1.3°C 19.3°F-7.1°C 65% 17.0 mph NW27.4 kmh NW 54.0 mph86.9 kmh 30.05 in1017.6 mb 0.00 in0.0 mm 0.00 in/hr0.0 mm/hr 0.01 in0.3 mm
05:10 PM 29.6°F-1.3°C 19.3°F-7.1°C 65% 18.0 mph NW29.0 kmh NW 42.0 mph67.6 kmh 30.06 in1017.9 mb 0.00 in0.0 mm 0.00 in/hr0.0 mm/hr 0.01 in0.3 mm
05:15 PM 29.6°F-1.3°C 18.9°F-7.3°C 64% 16.0 mph NW25.7 kmh NW 48.0 mph77.2 kmh 30.07 in1018.3 mb 0.00 in0.0 mm 0.00 in/hr0.0 mm/hr 0.01 in0.3 mm
05:20 PM 29.6°F-1.3°C 19.3°F-7.1°C 65% 33.0 mph WNW53.1 kmh WNW 47.0 mph75.6 kmh 30.07 in1018.3 mb 0.00 in0.0 mm 0.00 in/hr0.0 mm/hr 0.01 in0.3 mm
05:25 PM 29.7°F-1.3°C 19.0°F-7.2°C 64% 17.0 mph WSW27.4 kmh WSW 61.0 mph98.2 kmh 30.06 in1017.9 mb 0.00 in0.0 mm 0.00 in/hr0.0 mm/hr 0.01 in0.3 mm
05:30 PM 29.8°F-1.2°C 18.7°F-7.4°C 63% 24.0 mph SW38.6 kmh SW 38.0 mph61.2 kmh 30.07 in1018.3 mb 0.00 in0.0 mm 0.00 in/hr0.0 mm/hr 0.01 in0.3 mm
05:35 PM 29.8°F-1.2°C 18.7°F-7.4°C 63% 38.0 mph WNW61.2 kmh WNW 40.0 mph64.4 kmh 30.07 in1018.3 mb 0.00 in0.0 mm 0.00 in/hr0.0 mm/hr 0.01 in0.3 mm
05:40 PM 29.6°F-1.3°C 18.5°F-7.5°C 63% 10.0 mph WSW16.1 kmh WSW 29.0 mph46.7 kmh 30.07 in1018.3 mb 0.00 in0.0 mm 0.00 in/hr0.0 mm/hr 0.01 in0.3 mm
05:45 PM 29.6°F-1.3°C 18.9°F-7.3°C 64% 10.0 mph NW16.1 kmh NW 47.0 mph75.6 kmh 30.09 in1019.0 mb 0.00 in0.0 mm 0.00 in/hr0.0 mm/hr 0.01 in0.3 mm
05:50 PM 29.6°F-1.3°C 18.9°F-7.3°C 64% 18.0 mph SW29.0 kmh SW 46.0 mph74.0 kmh 30.08 in1018.6 mb 0.00 in0.0 mm 0.00 in/hr0.0 mm/hr 0.01 in0.3 mm
05:55 PM 29.4°F-1.4°C 18.7°F-7.4°C 64% 12.0 mph WSW19.3 kmh WSW 50.0 mph80.5 kmh 30.09 in1019.0 mb 0.00 in0.0 mm 0.00 in/hr0.0 mm/hr 0.01 in0.3 mm
06:00 PM 29.3°F-1.5°C 18.6°F-7.4°C 64% 31.0 mph WSW49.9 kmh WSW 44.0 mph70.8 kmh 30.10 in1019.3 mb 0.00 in0.0 mm 0.00 in/hr0.0 mm/hr 0.01 in0.3 mm
06:05 PM 29.3°F-1.5°C 18.6°F-7.4°C 64% 10.0 mph WSW16.1 kmh WSW 40.0 mph64.4 kmh 30.13 in1020.3 mb 0.00 in0.0 mm 0.00 in/hr0.0 mm/hr 0.01 in0.3 mm
06:10 PM 29.2°F-1.6°C 18.9°F-7.3°C 65% Calm Calm 32.0 mph51.5 kmh 30.12 in1020.0 mb 0.00 in0.0 mm 0.00 in/hr0.0 mm/hr 0.01 in0.3 mm
06:15 PM 29.1°F-1.6°C 18.8°F-7.3°C 65% 8.0 mph WSW12.9 kmh WSW 28.0 mph45.1 kmh 30.13 in1020.3 mb 0.00 in0.0 mm 0.00 in/hr0.0 mm/hr 0.01 in0.3 mm
06:20 PM 29.1°F-1.6°C 18.8°F-7.3°C 65% 18.0 mph NW29.0 kmh NW 31.0 mph49.9 kmh 30.12 in1020.0 mb 0.00 in0.0 mm 0.00 in/hr0.0 mm/hr 0.01 in0.3 mm
06:25 PM 29.0°F-1.7°C 18.3°F-7.6°C 64% 23.0 mph WNW37.0 kmh WNW 25.0 mph40.2 kmh 30.12 in1020.0 mb 0.00 in0.0 mm 0.00 in/hr0.0 mm/hr 0.01 in0.3 mm
06:30 PM 28.9°F-1.7°C 18.2°F-7.7°C 64% 12.0 mph N19.3 kmh N 25.0 mph40.2 kmh 30.12 in1020.0 mb 0.00 in0.0 mm 0.00 in/hr0.0 mm/hr 0.01 in0.3 mm
06:35 PM 29.0°F-1.7°C 18.3°F-7.6°C 64% 9.0 mph NW14.5 kmh NW 33.0 mph53.1 kmh 30.12 in1020.0 mb 0.00 in0.0 mm 0.00 in/hr0.0 mm/hr 0.01 in0.3 mm
06:40 PM 29.0°F-1.7°C 18.7°F-7.4°C 65% 11.0 mph N17.7 kmh N 24.0 mph38.6 kmh 30.13 in1020.3 mb 0.00 in0.0 mm 0.00 in/hr0.0 mm/hr 0.01 in0.3 mm
06:45 PM 29.2°F-1.6°C 18.9°F-7.3°C 65% 3.0 mph WSW4.8 kmh WSW 37.0 mph59.5 kmh 30.11 in1019.6 mb 0.00 in0.0 mm 0.00 in/hr0.0 mm/hr 0.01 in0.3 mm
06:50 PM 29.2°F-1.6°C 18.9°F-7.3°C 65% 2.0 mph WSW3.2 kmh WSW 13.0 mph20.9 kmh 30.12 in1020.0 mb 0.00 in0.0 mm 0.00 in/hr0.0 mm/hr 0.01 in0.3 mm
06:55 PM 29.0°F-1.7°C 18.7°F-7.4°C 65% 10.0 mph NNE16.1 kmh NNE 13.0 mph20.9 kmh 30.11 in1019.6 mb 0.00 in0.0 mm 0.00 in/hr0.0 mm/hr 0.01 in0.3 mm
07:00 PM 29.0°F-1.7°C 19.0°F-7.2°C 66% 7.0 mph WNW11.3 kmh WNW 17.0 mph27.4 kmh 30.11 in1019.6 mb 0.00 in0.0 mm 0.00 in/hr0.0 mm/hr 0.01 in0.3 mm
07:05 PM 29.1°F-1.6°C 19.1°F-7.2°C 66% 10.0 mph SW16.1 kmh SW 28.0 mph45.1 kmh 30.10 in1019.3 mb 0.00 in0.0 mm 0.00 in/hr0.0 mm/hr 0.01 in0.3 mm
07:10 PM 29.2°F-1.6°C 19.2°F-7.1°C 66% 5.0 mph WSW8.0 kmh WSW 28.0 mph45.1 kmh 30.09 in1019.0 mb 0.00 in0.0 mm 0.00 in/hr0.0 mm/hr 0.01 in0.3 mm
07:15 PM 29.0°F-1.7°C 19.4°F-7.0°C 67% 20.0 mph NW32.2 kmh NW 26.0 mph41.8 kmh 30.10 in1019.3 mb 0.00 in0.0 mm 0.00 in/hr0.0 mm/hr 0.01 in0.3 mm
07:20 PM 29.0°F-1.7°C 19.4°F-7.0°C 67% 5.0 mph NW8.0 kmh NW 25.0 mph40.2 kmh 30.09 in1019.0 mb 0.00 in0.0 mm 0.00 in/hr0.0 mm/hr 0.01 in0.3 mm
07:25 PM 29.0°F-1.7°C 19.4°F-7.0°C 67% 21.0 mph WSW33.8 kmh WSW 26.0 mph41.8 kmh 30.11 in1019.6 mb 0.00 in0.0 mm 0.00 in/hr0.0 mm/hr 0.01 in0.3 mm
07:30 PM 29.0°F-1.7°C 19.4°F-7.0°C 67% 14.0 mph WNW22.5 kmh WNW 36.0 mph57.9 kmh 30.10 in1019.3 mb 0.00 in0.0 mm 0.00 in/hr0.0 mm/hr 0.01 in0.3 mm
07:35 PM 29.1°F-1.6°C 19.5°F-6.9°C 67% 16.0 mph WNW25.7 kmh WNW 40.0 mph64.4 kmh 30.09 in1019.0 mb 0.00 in0.0 mm 0.00 in/hr0.0 mm/hr 0.01 in0.3 mm
07:40 PM 29.1°F-1.6°C 19.8°F-6.8°C 68% 11.0 mph WSW17.7 kmh WSW 40.0 mph64.4 kmh 30.10 in1019.3 mb 0.00 in0.0 mm 0.00 in/hr0.0 mm/hr 0.01 in0.3 mm
07:45 PM 29.0°F-1.7°C 19.7°F-6.8°C 68% 3.0 mph WNW4.8 kmh WNW 30.0 mph48.3 kmh 30.11 in1019.6 mb 0.00 in0.0 mm 0.00 in/hr0.0 mm/hr 0.01 in0.3 mm
07:50 PM 28.8°F-1.8°C 19.9°F-6.7°C 69% 14.0 mph W22.5 kmh W 26.0 mph41.8 kmh 30.11 in1019.6 mb 0.00 in0.0 mm 0.00 in/hr0.0 mm/hr 0.01 in0.3 mm
07:55 PM 28.8°F-1.8°C 19.9°F-6.7°C 69% 16.0 mph WNW25.7 kmh WNW 44.0 mph70.8 kmh 30.12 in1020.0 mb 0.00 in0.0 mm 0.00 in/hr0.0 mm/hr 0.01 in0.3 mm
08:00 PM 28.7°F-1.8°C 20.1°F-6.6°C 70% 26.0 mph N41.8 kmh N 41.0 mph66.0 kmh 30.11 in1019.6 mb 0.00 in0.0 mm 0.00 in/hr0.0 mm/hr 0.01 in0.3 mm
08:05 PM 28.6°F-1.9°C 20.0°F-6.7°C 70% 8.0 mph WSW12.9 kmh WSW 40.0 mph64.4 kmh 30.13 in1020.3 mb 0.00 in0.0 mm 0.00 in/hr0.0 mm/hr 0.01 in0.3 mm
08:10 PM 28.6°F-1.9°C 20.0°F-6.7°C 70% 7.0 mph WNW11.3 kmh WNW 38.0 mph61.2 kmh 30.13 in1020.3 mb 0.00 in0.0 mm 0.00 in/hr0.0 mm/hr 0.01 in0.3 mm
08:15 PM 28.5°F-1.9°C 20.3°F-6.5°C 71% 4.0 mph NW6.4 kmh NW 35.0 mph56.3 kmh 30.13 in1020.3 mb 0.00 in0.0 mm 0.00 in/hr0.0 mm/hr 0.01 in0.3 mm
08:20 PM 28.7°F-1.8°C 20.1°F-6.6°C 70% 12.0 mph NW19.3 kmh NW 40.0 mph64.4 kmh 30.13 in1020.3 mb 0.00 in0.0 mm 0.00 in/hr0.0 mm/hr 0.01 in0.3 mm
08:25 PM 28.7°F-1.8°C 20.1°F-6.6°C 70% 23.0 mph WSW37.0 kmh WSW 35.0 mph56.3 kmh 30.13 in1020.3 mb 0.00 in0.0 mm 0.00 in/hr0.0 mm/hr 0.01 in0.3 mm
08:30 PM 28.6°F-1.9°C 20.0°F-6.7°C 70% 10.0 mph WSW16.1 kmh WSW 34.0 mph54.7 kmh 30.13 in1020.3 mb 0.00 in0.0 mm 0.00 in/hr0.0 mm/hr 0.01 in0.3 mm
08:35 PM 28.7°F-1.8°C 20.5°F-6.4°C 71% 32.0 mph NW51.5 kmh NW 45.0 mph72.4 kmh 30.12 in1020.0 mb 0.00 in0.0 mm 0.00 in/hr0.0 mm/hr 0.01 in0.3 mm
08:40 PM 28.7°F-1.8°C 20.5°F-6.4°C 71% 10.0 mph WNW16.1 kmh WNW 43.0 mph69.2 kmh 30.12 in1020.0 mb 0.00 in0.0 mm 0.00 in/hr0.0 mm/hr 0.01 in0.3 mm
08:45 PM 28.6°F-1.9°C 20.4°F-6.4°C 71% 7.0 mph W11.3 kmh W 29.0 mph46.7 kmh 30.11 in1019.6 mb 0.00 in0.0 mm 0.00 in/hr0.0 mm/hr 0.01 in0.3 mm
08:50 PM 28.6°F-1.9°C 20.4°F-6.4°C 71% 9.0 mph SW14.5 kmh SW 33.0 mph53.1 kmh 30.12 in1020.0 mb 0.00 in0.0 mm 0.00 in/hr0.0 mm/hr 0.01 in0.3 mm
08:55 PM 28.7°F-1.8°C 20.5°F-6.4°C 71% 7.0 mph NW11.3 kmh NW 36.0 mph57.9 kmh 30.13 in1020.3 mb 0.00 in0.0 mm 0.00 in/hr0.0 mm/hr 0.01 in0.3 mm
09:00 PM 28.7°F-1.8°C 20.8°F-6.2°C 72% 9.0 mph WSW14.5 kmh WSW 40.0 mph64.4 kmh 30.14 in1020.7 mb 0.00 in0.0 mm 0.00 in/hr0.0 mm/hr 0.01 in0.3 mm
09:05 PM 28.6°F-1.9°C 20.7°F-6.3°C 72% 20.0 mph SW32.2 kmh SW 31.0 mph49.9 kmh 30.12 in1020.0 mb 0.00 in0.0 mm 0.00 in/hr0.0 mm/hr 0.01 in0.3 mm
09:10 PM 28.5°F-1.9°C 20.6°F-6.3°C 72% 17.0 mph WNW27.4 kmh WNW 36.0 mph57.9 kmh 30.13 in1020.3 mb 0.00 in0.0 mm 0.00 in/hr0.0 mm/hr 0.01 in0.3 mm
09:15 PM 28.4°F-2.0°C 20.5°F-6.4°C 72% 28.0 mph SSW45.1 kmh SSW 32.0 mph51.5 kmh 30.12 in1020.0 mb 0.00 in0.0 mm 0.00 in/hr0.0 mm/hr 0.01 in0.3 mm
09:20 PM 28.4°F-2.0°C 20.8°F-6.2°C 73% 12.0 mph WSW19.3 kmh WSW 35.0 mph56.3 kmh 30.13 in1020.3 mb 0.00 in0.0 mm 0.00 in/hr0.0 mm/hr 0.01 in0.3 mm
09:25 PM 28.4°F-2.0°C 20.8°F-6.2°C 73% 10.0 mph WNW16.1 kmh WNW 31.0 mph49.9 kmh 30.13 in1020.3 mb 0.00 in0.0 mm 0.00 in/hr0.0 mm/hr 0.01 in0.3 mm
09:30 PM 28.3°F-2.1°C 20.7°F-6.3°C 73% 21.0 mph WNW33.8 kmh WNW 30.0 mph48.3 kmh 30.12 in1020.0 mb 0.00 in0.0 mm 0.00 in/hr0.0 mm/hr 0.01 in0.3 mm
09:35 PM 28.1°F-2.2°C 20.5°F-6.4°C 73% 8.0 mph WSW12.9 kmh WSW 27.0 mph43.5 kmh 30.13 in1020.3 mb 0.00 in0.0 mm 0.00 in/hr0.0 mm/hr 0.01 in0.3 mm
09:40 PM 28.0°F-2.2°C 20.4°F-6.4°C 73% 11.0 mph WSW17.7 kmh WSW 26.0 mph41.8 kmh 30.12 in1020.0 mb 0.00 in0.0 mm 0.00 in/hr0.0 mm/hr 0.01 in0.3 mm
09:45 PM 27.7°F-2.4°C 20.1°F-6.6°C 73% 18.0 mph WSW29.0 kmh WSW 29.0 mph46.7 kmh 30.12 in1020.0 mb 0.00 in0.0 mm 0.00 in/hr0.0 mm/hr 0.01 in0.3 mm
09:50 PM 27.7°F-2.4°C 20.1°F-6.6°C 73% 9.0 mph WNW14.5 kmh WNW 46.0 mph74.0 kmh 30.12 in1020.0 mb 0.00 in0.0 mm 0.00 in/hr0.0 mm/hr 0.01 in0.3 mm
09:56 PM 27.6°F-2.4°C 20.4°F-6.4°C 74% 5.0 mph WSW8.0 kmh WSW 34.0 mph54.7 kmh 30.13 in1020.3 mb 0.00 in0.0 mm 0.00 in/hr0.0 mm/hr 0.01 in0.3 mm
10:00 PM 27.6°F-2.4°C 20.4°F-6.4°C 74% 20.0 mph W32.2 kmh W 27.0 mph43.5 kmh 30.11 in1019.6 mb 0.00 in0.0 mm 0.00 in/hr0.0 mm/hr 0.01 in0.3 mm
10:05 PM 27.7°F-2.4°C 20.5°F-6.4°C 74% 3.0 mph N4.8 kmh N 19.0 mph30.6 kmh 30.13 in1020.3 mb 0.00 in0.0 mm 0.00 in/hr0.0 mm/hr 0.01 in0.3 mm
10:10 PM 27.8°F-2.3°C 20.6°F-6.3°C 74% 9.0 mph NNW14.5 kmh NNW 39.0 mph62.8 kmh 30.14 in1020.7 mb 0.00 in0.0 mm 0.00 in/hr0.0 mm/hr 0.01 in0.3 mm
10:15 PM 27.8°F-2.3°C 20.6°F-6.3°C 74% 8.0 mph NNW12.9 kmh NNW 17.0 mph27.4 kmh 30.15 in1021.0 mb 0.00 in0.0 mm 0.00 in/hr0.0 mm/hr 0.01 in0.3 mm
10:20 PM 27.8°F-2.3°C 20.6°F-6.3°C 74% 4.0 mph W6.4 kmh W 41.0 mph66.0 kmh 30.14 in1020.7 mb 0.00 in0.0 mm 0.00 in/hr0.0 mm/hr 0.01 in0.3 mm
10:25 PM 27.7°F-2.4°C 20.8°F-6.2°C 75% 10.0 mph NNW16.1 kmh NNW 19.0 mph30.6 kmh 30.16 in1021.3 mb 0.00 in0.0 mm 0.00 in/hr0.0 mm/hr 0.01 in0.3 mm
10:30 PM 27.6°F-2.4°C 20.7°F-6.3°C 75% 1.0 mph W1.6 kmh W 15.0 mph24.1 kmh 30.16 in1021.3 mb 0.00 in0.0 mm 0.00 in/hr0.0 mm/hr 0.01 in0.3 mm
10:35 PM 27.7°F-2.4°C 20.5°F-6.4°C 74% 2.0 mph NNW3.2 kmh NNW 19.0 mph30.6 kmh 30.17 in1021.7 mb 0.00 in0.0 mm 0.00 in/hr0.0 mm/hr 0.01 in0.3 mm
10:40 PM 27.6°F-2.4°C 20.7°F-6.3°C 75% 3.0 mph W4.8 kmh W 21.0 mph33.8 kmh 30.18 in1022.0 mb 0.00 in0.0 mm 0.00 in/hr0.0 mm/hr 0.01 in0.3 mm
10:45 PM 27.6°F-2.4°C 20.7°F-6.3°C 75% 8.0 mph SW12.9 kmh SW 20.0 mph32.2 kmh 30.17 in1021.7 mb 0.00 in0.0 mm 0.00 in/hr0.0 mm/hr 0.01 in0.3 mm
10:50 PM 27.6°F-2.4°C 20.7°F-6.3°C 75% 8.0 mph NNW12.9 kmh NNW 18.0 mph29.0 kmh 30.18 in1022.0 mb 0.00 in0.0 mm 0.00 in/hr0.0 mm/hr 0.01 in0.3 mm
10:55 PM 27.5°F-2.5°C 20.6°F-6.3°C 75% 17.0 mph WSW27.4 kmh WSW 17.0 mph27.4 kmh 30.17 in1021.7 mb 0.00 in0.0 mm 0.00 in/hr0.0 mm/hr 0.01 in0.3 mm
11:00 PM 27.5°F-2.5°C 20.6°F-6.3°C 75% 13.0 mph NNW20.9 kmh NNW 22.0 mph35.4 kmh 30.17 in1021.7 mb 0.00 in0.0 mm 0.00 in/hr0.0 mm/hr 0.01 in0.3 mm
11:05 PM 27.5°F-2.5°C 20.6°F-6.3°C 75% 6.0 mph W9.7 kmh W 19.0 mph30.6 kmh 30.18 in1022.0 mb 0.00 in0.0 mm 0.00 in/hr0.0 mm/hr 0.01 in0.3 mm
11:10 PM 27.4°F-2.6°C 20.5°F-6.4°C 75% 2.0 mph NW3.2 kmh NW 16.0 mph25.7 kmh 30.18 in1022.0 mb 0.00 in0.0 mm 0.00 in/hr0.0 mm/hr 0.01 in0.3 mm
11:15 PM 27.3°F-2.6°C 20.7°F-6.3°C 76% 9.0 mph NNW14.5 kmh NNW 12.0 mph19.3 kmh 30.18 in1022.0 mb 0.00 in0.0 mm 0.00 in/hr0.0 mm/hr 0.01 in0.3 mm
11:20 PM 27.3°F-2.6°C 20.4°F-6.4°C 75% 1.0 mph WNW1.6 kmh WNW 21.0 mph33.8 kmh 30.19 in1022.4 mb 0.00 in0.0 mm 0.00 in/hr0.0 mm/hr 0.01 in0.3 mm
11:25 PM 27.3°F-2.6°C 20.4°F-6.4°C 75% 5.0 mph NW8.0 kmh NW 16.0 mph25.7 kmh 30.18 in1022.0 mb 0.00 in0.0 mm 0.00 in/hr0.0 mm/hr 0.01 in0.3 mm
11:30 PM 27.3°F-2.6°C 20.4°F-6.4°C 75% 12.0 mph WSW19.3 kmh WSW 15.0 mph24.1 kmh 30.18 in1022.0 mb 0.00 in0.0 mm 0.00 in/hr0.0 mm/hr 0.01 in0.3 mm
11:35 PM 27.2°F-2.7°C 20.6°F-6.3°C 76% 13.0 mph NW20.9 kmh NW 20.0 mph32.2 kmh 30.17 in1021.7 mb 0.00 in0.0 mm 0.00 in/hr0.0 mm/hr 0.01 in0.3 mm
11:40 PM 27.3°F-2.6°C 20.4°F-6.4°C 75% 3.0 mph WNW4.8 kmh WNW 25.0 mph40.2 kmh 30.17 in1021.7 mb 0.00 in0.0 mm 0.00 in/hr0.0 mm/hr 0.01 in0.3 mm
11:45 PM 27.3°F-2.6°C 20.4°F-6.4°C 75% 4.0 mph NNW6.4 kmh NNW 19.0 mph30.6 kmh 30.16 in1021.3 mb 0.00 in0.0 mm 0.00 in/hr0.0 mm/hr 0.01 in0.3 mm
11:50 PM 27.5°F-2.5°C 20.3°F-6.5°C 74% 1.0 mph W1.6 kmh W 20.0 mph32.2 kmh 30.16 in1021.3 mb 0.00 in0.0 mm 0.00 in/hr0.0 mm/hr 0.01 in0.3 mm
11:55 PM 27.6°F-2.4°C 20.4°F-6.4°C 74% 9.0 mph NW14.5 kmh NW 10.0 mph16.1 kmh 30.15 in1021.0 mb 0.00 in0.0 mm 0.00 in/hr0.0 mm/hr 0.01 in0.3 mm